sensor_id;sensor_type;location;lat;lon;timestamp;temperature;humidity
10121;DHT22;5100;45.176;5.714;2023-05-23T00:02:17;21.00;68.10
10121;DHT22;5100;45.176;5.714;2023-05-23T00:04:44;21.00;68.10
10121;DHT22;5100;45.176;5.714;2023-05-23T00:07:10;21.00;68.10
10121;DHT22;5100;45.176;5.714;2023-05-23T00:09:36;21.00;68.00
10121;DHT22;5100;45.176;5.714;2023-05-23T00:12:03;21.00;68.10
10121;DHT22;5100;45.176;5.714;2023-05-23T00:14:29;21.00;68.30
10121;DHT22;5100;45.176;5.714;2023-05-23T00:16:58;20.90;68.60
10121;DHT22;5100;45.176;5.714;2023-05-23T00:19:26;20.90;68.70
10121;DHT22;5100;45.176;5.714;2023-05-23T00:21:52;20.90;68.60
10121;DHT22;5100;45.176;5.714;2023-05-23T00:24:21;20.90;68.70
10121;DHT22;5100;45.176;5.714;2023-05-23T00:26:47;20.90;68.60
10121;DHT22;5100;45.176;5.714;2023-05-23T00:29:14;20.90;68.50
10121;DHT22;5100;45.176;5.714;2023-05-23T00:31:42;20.90;68.30
10121;DHT22;5100;45.176;5.714;2023-05-23T00:34:12;20.90;68.20
10121;DHT22;5100;45.176;5.714;2023-05-23T00:36:39;20.90;68.40
10121;DHT22;5100;45.176;5.714;2023-05-23T00:39:07;20.80;68.50
10121;DHT22;5100;45.176;5.714;2023-05-23T00:41:34;20.80;68.50
10121;DHT22;5100;45.176;5.714;2023-05-23T00:44:01;20.80;68.50
10121;DHT22;5100;45.176;5.714;2023-05-23T00:46:29;20.80;68.50
10121;DHT22;5100;45.176;5.714;2023-05-23T00:48:55;20.80;68.60
10121;DHT22;5100;45.176;5.714;2023-05-23T00:51:22;20.80;68.50
10121;DHT22;5100;45.176;5.714;2023-05-23T00:53:48;20.80;68.60
10121;DHT22;5100;45.176;5.714;2023-05-23T00:56:14;20.70;68.60
10121;DHT22;5100;45.176;5.714;2023-05-23T00:58:40;20.70;68.60
10121;DHT22;5100;45.176;5.714;2023-05-23T01:01:07;20.70;68.60
10121;DHT22;5100;45.176;5.714;2023-05-23T01:03:33;20.70;68.70
10121;DHT22;5100;45.176;5.714;2023-05-23T01:05:59;20.70;68.70
10121;DHT22;5100;45.176;5.714;2023-05-23T01:08:28;20.70;68.60
10121;DHT22;5100;45.176;5.714;2023-05-23T01:10:59;20.60;68.60
10121;DHT22;5100;45.176;5.714;2023-05-23T01:16:11;20.60;68.60
10121;DHT22;5100;45.176;5.714;2023-05-23T01:18:58;20.60;68.70
10121;DHT22;5100;45.176;5.714;2023-05-23T01:21:28;20.60;68.70
10121;DHT22;5100;45.176;5.714;2023-05-23T01:24:23;20.50;68.70
10121;DHT22;5100;45.176;5.714;2023-05-23T01:27:04;20.50;68.70
10121;DHT22;5100;45.176;5.714;2023-05-23T01:29:36;20.50;68.80
10121;DHT22;5100;45.176;5.714;2023-05-23T01:32:07;20.50;69.00
10121;DHT22;5100;45.176;5.714;2023-05-23T01:34:36;20.50;68.90
10121;DHT22;5100;45.176;5.714;2023-05-23T01:37:10;20.50;68.90
10121;DHT22;5100;45.176;5.714;2023-05-23T01:39:38;20.40;68.90
10121;DHT22;5100;45.176;5.714;2023-05-23T01:42:05;20.40;68.90
10121;DHT22;5100;45.176;5.714;2023-05-23T01:44:33;20.40;68.80
10121;DHT22;5100;45.176;5.714;2023-05-23T01:47:02;20.40;68.80
10121;DHT22;5100;45.176;5.714;2023-05-23T01:49:29;20.40;68.90
10121;DHT22;5100;45.176;5.714;2023-05-23T01:51:58;20.30;68.80
10121;DHT22;5100;45.176;5.714;2023-05-23T01:54:25;20.30;68.80
10121;DHT22;5100;45.176;5.714;2023-05-23T01:56:56;20.30;68.90
10121;DHT22;5100;45.176;5.714;2023-05-23T01:59:22;20.30;68.90
10121;DHT22;5100;45.176;5.714;2023-05-23T02:01:49;20.30;68.90
10121;DHT22;5100;45.176;5.714;2023-05-23T02:04:16;20.30;68.90
10121;DHT22;5100;45.176;5.714;2023-05-23T02:06:41;20.20;68.90
10121;DHT22;5100;45.176;5.714;2023-05-23T02:09:09;20.20;69.00
10121;DHT22;5100;45.176;5.714;2023-05-23T02:11:36;20.20;69.20
10121;DHT22;5100;45.176;5.714;2023-05-23T02:14:02;20.20;69.20
10121;DHT22;5100;45.176;5.714;2023-05-23T02:16:28;20.20;69.20
10121;DHT22;5100;45.176;5.714;2023-05-23T02:18:54;20.20;69.30
10121;DHT22;5100;45.176;5.714;2023-05-23T02:21:22;20.20;69.50
10121;DHT22;5100;45.176;5.714;2023-05-23T02:23:48;20.20;69.40
10121;DHT22;5100;45.176;5.714;2023-05-23T02:26:16;20.10;69.50
10121;DHT22;5100;45.176;5.714;2023-05-23T02:28:43;20.10;69.40
10121;DHT22;5100;45.176;5.714;2023-05-23T02:31:09;20.10;69.40
10121;DHT22;5100;45.176;5.714;2023-05-23T02:33:35;20.10;69.40
10121;DHT22;5100;45.176;5.714;2023-05-23T02:36:02;20.10;69.30
10121;DHT22;5100;45.176;5.714;2023-05-23T02:38:29;20.10;69.40
10121;DHT22;5100;45.176;5.714;2023-05-23T02:40:55;20.10;69.50
10121;DHT22;5100;45.176;5.714;2023-05-23T02:43:23;20.10;69.50
10121;DHT22;5100;45.176;5.714;2023-05-23T02:45:49;20.10;69.50
10121;DHT22;5100;45.176;5.714;2023-05-23T02:48:15;20.10;69.50
10121;DHT22;5100;45.176;5.714;2023-05-23T02:50:43;20.10;69.60
10121;DHT22;5100;45.176;5.714;2023-05-23T02:53:09;20.10;69.50
10121;DHT22;5100;45.176;5.714;2023-05-23T02:55:35;20.10;69.50
10121;DHT22;5100;45.176;5.714;2023-05-23T02:58:03;20.10;69.50
10121;DHT22;5100;45.176;5.714;2023-05-23T03:00:31;20.10;69.60
10121;DHT22;5100;45.176;5.714;2023-05-23T03:02:57;20.10;69.60
10121;DHT22;5100;45.176;5.714;2023-05-23T03:05:45;20.10;69.60
10121;DHT22;5100;45.176;5.714;2023-05-23T03:08:11;20.10;69.80
10121;DHT22;5100;45.176;5.714;2023-05-23T03:10:37;20.10;69.70
10121;DHT22;5100;45.176;5.714;2023-05-23T03:13:03;20.10;69.70
10121;DHT22;5100;45.176;5.714;2023-05-23T03:15:30;20.10;69.60
10121;DHT22;5100;45.176;5.714;2023-05-23T03:17:56;20.10;69.50
10121;DHT22;5100;45.176;5.714;2023-05-23T03:20:22;20.10;69.50
10121;DHT22;5100;45.176;5.714;2023-05-23T03:22:48;20.10;69.50
10121;DHT22;5100;45.176;5.714;2023-05-23T03:25:15;20.10;69.50
10121;DHT22;5100;45.176;5.714;2023-05-23T03:27:41;20.10;69.60
10121;DHT22;5100;45.176;5.714;2023-05-23T03:30:08;20.10;69.60
10121;DHT22;5100;45.176;5.714;2023-05-23T03:32:34;20.10;69.80
10121;DHT22;5100;45.176;5.714;2023-05-23T03:35:01;20.10;69.90
10121;DHT22;5100;45.176;5.714;2023-05-23T03:37:27;20.10;69.90
10121;DHT22;5100;45.176;5.714;2023-05-23T03:39:53;20.10;69.90
10121;DHT22;5100;45.176;5.714;2023-05-23T03:42:19;20.10;69.80
10121;DHT22;5100;45.176;5.714;2023-05-23T03:44:46;20.00;69.70
10121;DHT22;5100;45.176;5.714;2023-05-23T03:47:13;20.00;69.70
10121;DHT22;5100;45.176;5.714;2023-05-23T03:49:39;20.00;69.70
10121;DHT22;5100;45.176;5.714;2023-05-23T03:52:05;20.00;69.70
10121;DHT22;5100;45.176;5.714;2023-05-23T03:54:33;20.00;69.70
10121;DHT22;5100;45.176;5.714;2023-05-23T03:56:59;20.00;69.70
10121;DHT22;5100;45.176;5.714;2023-05-23T03:59:25;20.00;69.70
10121;DHT22;5100;45.176;5.714;2023-05-23T04:01:51;20.00;69.80
10121;DHT22;5100;45.176;5.714;2023-05-23T04:04:18;20.00;69.80
10121;DHT22;5100;45.176;5.714;2023-05-23T04:06:46;20.00;69.90
10121;DHT22;5100;45.176;5.714;2023-05-23T04:09:13;20.00;69.80
10121;DHT22;5100;45.176;5.714;2023-05-23T04:11:40;20.00;69.80
10121;DHT22;5100;45.176;5.714;2023-05-23T04:14:07;20.00;69.80
10121;DHT22;5100;45.176;5.714;2023-05-23T04:16:34;20.00;69.80
10121;DHT22;5100;45.176;5.714;2023-05-23T04:19:01;20.00;69.80
10121;DHT22;5100;45.176;5.714;2023-05-23T04:21:29;20.00;69.90
10121;DHT22;5100;45.176;5.714;2023-05-23T04:23:57;20.00;70.00
10121;DHT22;5100;45.176;5.714;2023-05-23T04:26:23;20.00;70.00
10121;DHT22;5100;45.176;5.714;2023-05-23T04:28:50;20.00;70.00
10121;DHT22;5100;45.176;5.714;2023-05-23T04:31:20;20.00;70.00
10121;DHT22;5100;45.176;5.714;2023-05-23T04:33:48;20.00;70.10
10121;DHT22;5100;45.176;5.714;2023-05-23T04:36:14;20.00;70.20
10121;DHT22;5100;45.176;5.714;2023-05-23T04:38:42;20.00;70.20
10121;DHT22;5100;45.176;5.714;2023-05-23T04:41:08;20.00;70.20
10121;DHT22;5100;45.176;5.714;2023-05-23T04:43:38;20.00;70.10
10121;DHT22;5100;45.176;5.714;2023-05-23T04:46:08;20.00;70.00
10121;DHT22;5100;45.176;5.714;2023-05-23T04:48:35;20.00;70.10
10121;DHT22;5100;45.176;5.714;2023-05-23T04:51:02;20.00;70.10
10121;DHT22;5100;45.176;5.714;2023-05-23T04:53:33;20.10;70.20
10121;DHT22;5100;45.176;5.714;2023-05-23T04:56:00;20.10;70.10
10121;DHT22;5100;45.176;5.714;2023-05-23T04:58:26;20.10;70.00
10121;DHT22;5100;45.176;5.714;2023-05-23T05:00:53;20.10;70.00
10121;DHT22;5100;45.176;5.714;2023-05-23T05:03:20;20.10;69.90
10121;DHT22;5100;45.176;5.714;2023-05-23T05:05:46;20.10;69.90
10121;DHT22;5100;45.176;5.714;2023-05-23T05:08:13;20.20;69.90
10121;DHT22;5100;45.176;5.714;2023-05-23T05:10:39;20.20;69.90
10121;DHT22;5100;45.176;5.714;2023-05-23T05:13:07;20.20;70.00
10121;DHT22;5100;45.176;5.714;2023-05-23T05:15:33;20.20;69.90
10121;DHT22;5100;45.176;5.714;2023-05-23T05:18:01;20.20;70.10
10121;DHT22;5100;45.176;5.714;2023-05-23T05:20:29;20.30;69.90
10121;DHT22;5100;45.176;5.714;2023-05-23T05:22:56;20.30;69.90
10121;DHT22;5100;45.176;5.714;2023-05-23T05:25:22;20.30;69.90
10121;DHT22;5100;45.176;5.714;2023-05-23T05:27:49;20.30;69.90
10121;DHT22;5100;45.176;5.714;2023-05-23T05:30:17;20.30;69.80
10121;DHT22;5100;45.176;5.714;2023-05-23T05:32:44;20.30;69.80
10121;DHT22;5100;45.176;5.714;2023-05-23T05:35:11;20.30;69.80
10121;DHT22;5100;45.176;5.714;2023-05-23T05:37:39;20.30;69.60
10121;DHT22;5100;45.176;5.714;2023-05-23T05:40:06;20.30;69.40
10121;DHT22;5100;45.176;5.714;2023-05-23T05:42:34;20.40;69.20
10121;DHT22;5100;45.176;5.714;2023-05-23T05:45:00;20.40;69.10
10121;DHT22;5100;45.176;5.714;2023-05-23T05:47:27;20.40;69.00
10121;DHT22;5100;45.176;5.714;2023-05-23T05:49:54;20.40;69.00
10121;DHT22;5100;45.176;5.714;2023-05-23T05:52:21;20.40;69.00
10121;DHT22;5100;45.176;5.714;2023-05-23T05:54:47;20.50;69.10
10121;DHT22;5100;45.176;5.714;2023-05-23T05:57:13;20.50;69.00
10121;DHT22;5100;45.176;5.714;2023-05-23T05:59:39;20.50;69.00
10121;DHT22;5100;45.176;5.714;2023-05-23T06:02:05;20.50;69.10
10121;DHT22;5100;45.176;5.714;2023-05-23T06:04:33;20.50;69.00
10121;DHT22;5100;45.176;5.714;2023-05-23T06:06:59;20.60;68.80
10121;DHT22;5100;45.176;5.714;2023-05-23T06:09:25;20.60;68.80
10121;DHT22;5100;45.176;5.714;2023-05-23T06:11:51;20.60;68.80
10121;DHT22;5100;45.176;5.714;2023-05-23T06:14:17;20.70;68.60
10121;DHT22;5100;45.176;5.714;2023-05-23T06:16:44;20.70;68.50
10121;DHT22;5100;45.176;5.714;2023-05-23T06:19:10;20.80;68.50
10121;DHT22;5100;45.176;5.714;2023-05-23T06:21:37;20.80;68.40
10121;DHT22;5100;45.176;5.714;2023-05-23T06:24:04;20.80;68.30
10121;DHT22;5100;45.176;5.714;2023-05-23T06:26:30;20.90;68.30
10121;DHT22;5100;45.176;5.714;2023-05-23T06:28:56;20.90;68.20
10121;DHT22;5100;45.176;5.714;2023-05-23T06:31:22;21.00;68.30
10121;DHT22;5100;45.176;5.714;2023-05-23T06:33:49;21.00;68.40
10121;DHT22;5100;45.176;5.714;2023-05-23T06:36:16;21.00;68.30
10121;DHT22;5100;45.176;5.714;2023-05-23T06:38:42;21.10;68.30
10121;DHT22;5100;45.176;5.714;2023-05-23T06:41:09;21.10;68.30
10121;DHT22;5100;45.176;5.714;2023-05-23T06:43:35;21.20;68.40
10121;DHT22;5100;45.176;5.714;2023-05-23T06:46:01;21.20;68.50
10121;DHT22;5100;45.176;5.714;2023-05-23T06:48:29;21.30;68.40
10121;DHT22;5100;45.176;5.714;2023-05-23T06:50:55;21.30;68.20
10121;DHT22;5100;45.176;5.714;2023-05-23T06:53:21;21.40;68.10
10121;DHT22;5100;45.176;5.714;2023-05-23T06:55:47;21.50;68.00
10121;DHT22;5100;45.176;5.714;2023-05-23T06:58:14;21.50;68.00
10121;DHT22;5100;45.176;5.714;2023-05-23T07:00:40;21.60;67.90
10121;DHT22;5100;45.176;5.714;2023-05-23T07:03:08;21.60;67.50
10121;DHT22;5100;45.176;5.714;2023-05-23T07:05:34;21.60;67.20
10121;DHT22;5100;45.176;5.714;2023-05-23T07:08:01;21.70;67.10
10121;DHT22;5100;45.176;5.714;2023-05-23T07:10:28;21.70;67.00
10121;DHT22;5100;45.176;5.714;2023-05-23T07:12:56;21.70;67.00
10121;DHT22;5100;45.176;5.714;2023-05-23T07:15:24;21.70;66.90
10121;DHT22;5100;45.176;5.714;2023-05-23T07:17:52;21.80;66.80
10121;DHT22;5100;45.176;5.714;2023-05-23T07:20:18;21.80;66.90
10121;DHT22;5100;45.176;5.714;2023-05-23T07:22:46;21.80;66.60
10121;DHT22;5100;45.176;5.714;2023-05-23T07:25:12;21.90;66.50
10121;DHT22;5100;45.176;5.714;2023-05-23T07:27:38;21.90;66.40
10121;DHT22;5100;45.176;5.714;2023-05-23T07:30:06;22.00;66.40
10121;DHT22;5100;45.176;5.714;2023-05-23T07:32:35;22.00;66.50
10121;DHT22;5100;45.176;5.714;2023-05-23T07:35:02;22.10;66.30
10121;DHT22;5100;45.176;5.714;2023-05-23T07:37:28;22.20;65.90
10121;DHT22;5100;45.176;5.714;2023-05-23T07:39:55;22.20;65.70
10121;DHT22;5100;45.176;5.714;2023-05-23T07:42:21;22.30;65.70
10121;DHT22;5100;45.176;5.714;2023-05-23T07:44:47;22.30;65.90
10121;DHT22;5100;45.176;5.714;2023-05-23T07:47:14;22.30;65.90
10121;DHT22;5100;45.176;5.714;2023-05-23T07:49:40;22.40;66.00
10121;DHT22;5100;45.176;5.714;2023-05-23T07:52:06;22.40;66.20
10121;DHT22;5100;45.176;5.714;2023-05-23T07:54:32;22.50;66.00
10121;DHT22;5100;45.176;5.714;2023-05-23T07:56:59;22.50;65.80
10121;DHT22;5100;45.176;5.714;2023-05-23T07:59:25;22.50;65.70
10121;DHT22;5100;45.176;5.714;2023-05-23T08:01:53;22.60;65.50
10121;DHT22;5100;45.176;5.714;2023-05-23T08:04:20;22.60;65.40
10121;DHT22;5100;45.176;5.714;2023-05-23T08:06:47;22.60;65.50
10121;DHT22;5100;45.176;5.714;2023-05-23T08:09:14;22.70;65.50
10121;DHT22;5100;45.176;5.714;2023-05-23T08:11:40;22.70;65.50
10121;DHT22;5100;45.176;5.714;2023-05-23T08:14:07;22.70;65.40
10121;DHT22;5100;45.176;5.714;2023-05-23T08:16:37;22.70;65.20
10121;DHT22;5100;45.176;5.714;2023-05-23T08:19:04;22.70;65.20
10121;DHT22;5100;45.176;5.714;2023-05-23T08:21:30;22.80;65.00
10121;DHT22;5100;45.176;5.714;2023-05-23T08:23:57;22.80;65.00
10121;DHT22;5100;45.176;5.714;2023-05-23T08:26:23;22.80;64.90
10121;DHT22;5100;45.176;5.714;2023-05-23T08:28:50;22.80;64.80
10121;DHT22;5100;45.176;5.714;2023-05-23T08:31:16;22.80;64.80
10121;DHT22;5100;45.176;5.714;2023-05-23T08:33:42;22.90;64.70
10121;DHT22;5100;45.176;5.714;2023-05-23T08:36:09;22.90;64.70
10121;DHT22;5100;45.176;5.714;2023-05-23T08:38:36;22.90;64.70
10121;DHT22;5100;45.176;5.714;2023-05-23T08:41:04;22.90;64.80
10121;DHT22;5100;45.176;5.714;2023-05-23T08:43:37;22.90;64.80
10121;DHT22;5100;45.176;5.714;2023-05-23T08:46:05;22.90;64.80
10121;DHT22;5100;45.176;5.714;2023-05-23T08:48:34;23.00;64.80
10121;DHT22;5100;45.176;5.714;2023-05-23T08:51:03;23.00;65.00
10121;DHT22;5100;45.176;5.714;2023-05-23T08:53:30;23.00;65.10
10121;DHT22;5100;45.176;5.714;2023-05-23T08:55:58;23.00;65.10
10121;DHT22;5100;45.176;5.714;2023-05-23T08:58:31;23.00;65.20
10121;DHT22;5100;45.176;5.714;2023-05-23T09:00:59;23.00;65.20
10121;DHT22;5100;45.176;5.714;2023-05-23T09:03:26;23.00;65.30
10121;DHT22;5100;45.176;5.714;2023-05-23T09:05:53;23.10;65.10
10121;DHT22;5100;45.176;5.714;2023-05-23T09:08:20;23.10;65.10
10121;DHT22;5100;45.176;5.714;2023-05-23T09:10:48;23.10;65.20
10121;DHT22;5100;45.176;5.714;2023-05-23T09:13:17;23.10;65.30
10121;DHT22;5100;45.176;5.714;2023-05-23T09:18:25;23.10;66.00
10121;DHT22;5100;45.176;5.714;2023-05-23T09:20:52;23.10;66.10
10121;DHT22;5100;45.176;5.714;2023-05-23T09:23:18;23.10;66.20
10121;DHT22;5100;45.176;5.714;2023-05-23T09:25:45;23.10;66.30
10121;DHT22;5100;45.176;5.714;2023-05-23T09:28:12;23.10;66.80
10121;DHT22;5100;45.176;5.714;2023-05-23T09:30:39;23.10;67.10
10121;DHT22;5100;45.176;5.714;2023-05-23T09:33:05;23.20;67.50
10121;DHT22;5100;45.176;5.714;2023-05-23T09:35:31;23.20;67.70
10121;DHT22;5100;45.176;5.714;2023-05-23T09:37:58;23.20;67.80
10121;DHT22;5100;45.176;5.714;2023-05-23T09:40:31;23.20;68.00
10121;DHT22;5100;45.176;5.714;2023-05-23T09:43:02;23.20;68.10
10121;DHT22;5100;45.176;5.714;2023-05-23T09:45:30;23.20;68.10
10121;DHT22;5100;45.176;5.714;2023-05-23T09:47:56;23.30;68.20
10121;DHT22;5100;45.176;5.714;2023-05-23T09:50:24;23.30;68.00
10121;DHT22;5100;45.176;5.714;2023-05-23T09:52:51;23.30;67.70
10121;DHT22;5100;45.176;5.714;2023-05-23T09:55:18;23.30;67.80
10121;DHT22;5100;45.176;5.714;2023-05-23T09:57:49;23.30;68.00
10121;DHT22;5100;45.176;5.714;2023-05-23T10:00:16;23.40;67.80
10121;DHT22;5100;45.176;5.714;2023-05-23T10:05:37;23.40;67.70
10121;DHT22;5100;45.176;5.714;2023-05-23T10:08:20;23.40;67.60
10121;DHT22;5100;45.176;5.714;2023-05-23T10:13:27;23.50;67.70
10121;DHT22;5100;45.176;5.714;2023-05-23T10:16:00;23.50;67.90
10121;DHT22;5100;45.176;5.714;2023-05-23T10:18:29;23.50;67.80
10121;DHT22;5100;45.176;5.714;2023-05-23T10:21:04;23.60;67.90
10121;DHT22;5100;45.176;5.714;2023-05-23T10:23:32;23.60;67.90
10121;DHT22;5100;45.176;5.714;2023-05-23T10:25:58;23.60;67.90
10121;DHT22;5100;45.176;5.714;2023-05-23T10:28:25;23.60;68.00
10121;DHT22;5100;45.176;5.714;2023-05-23T10:30:52;23.60;68.00
10121;DHT22;5100;45.176;5.714;2023-05-23T10:33:18;23.60;68.00
10121;DHT22;5100;45.176;5.714;2023-05-23T10:35:58;23.70;68.00
10121;DHT22;5100;45.176;5.714;2023-05-23T10:38:35;23.70;67.90
10121;DHT22;5100;45.176;5.714;2023-05-23T10:41:17;23.70;68.00
10121;DHT22;5100;45.176;5.714;2023-05-23T10:49:16;23.70;67.70
10121;DHT22;5100;45.176;5.714;2023-05-23T10:51:42;23.70;68.00
10121;DHT22;5100;45.176;5.714;2023-05-23T10:54:11;23.70;68.10
10121;DHT22;5100;45.176;5.714;2023-05-23T10:56:37;23.70;68.20
10121;DHT22;5100;45.176;5.714;2023-05-23T10:59:04;23.70;68.20
10121;DHT22;5100;45.176;5.714;2023-05-23T11:01:31;23.80;68.20
10121;DHT22;5100;45.176;5.714;2023-05-23T11:04:04;23.80;68.40
10121;DHT22;5100;45.176;5.714;2023-05-23T11:09:03;23.80;68.40
10121;DHT22;5100;45.176;5.714;2023-05-23T11:12:01;23.90;68.50
10121;DHT22;5100;45.176;5.714;2023-05-23T11:14:31;23.90;68.60
10121;DHT22;5100;45.176;5.714;2023-05-23T11:17:14;23.90;68.50
10121;DHT22;5100;45.176;5.714;2023-05-23T11:19:59;23.90;68.50
10121;DHT22;5100;45.176;5.714;2023-05-23T11:22:27;23.90;68.50
10121;DHT22;5100;45.176;5.714;2023-05-23T11:24:55;23.90;68.30
10121;DHT22;5100;45.176;5.714;2023-05-23T11:27:28;23.90;68.10
10121;DHT22;5100;45.176;5.714;2023-05-23T11:30:00;24.00;68.00
10121;DHT22;5100;45.176;5.714;2023-05-23T11:32:30;24.00;68.10
10121;DHT22;5100;45.176;5.714;2023-05-23T11:35:01;24.00;68.30
10121;DHT22;5100;45.176;5.714;2023-05-23T11:37:28;24.00;68.20
10121;DHT22;5100;45.176;5.714;2023-05-23T11:39:55;24.00;68.30
10121;DHT22;5100;45.176;5.714;2023-05-23T11:42:22;24.00;68.40
10121;DHT22;5100;45.176;5.714;2023-05-23T11:44:52;24.00;68.40
10121;DHT22;5100;45.176;5.714;2023-05-23T11:47:18;24.00;68.30
10121;DHT22;5100;45.176;5.714;2023-05-23T11:49:46;24.00;68.10
10121;DHT22;5100;45.176;5.714;2023-05-23T11:52:12;24.00;68.10
10121;DHT22;5100;45.176;5.714;2023-05-23T11:54:42;24.10;68.20
10121;DHT22;5100;45.176;5.714;2023-05-23T11:57:12;24.00;68.30
10121;DHT22;5100;45.176;5.714;2023-05-23T11:59:39;24.00;68.40
10121;DHT22;5100;45.176;5.714;2023-05-23T12:02:05;24.00;68.40
10121;DHT22;5100;45.176;5.714;2023-05-23T12:04:34;24.10;68.40
10121;DHT22;5100;45.176;5.714;2023-05-23T12:07:03;24.10;68.30
10121;DHT22;5100;45.176;5.714;2023-05-23T12:09:30;24.10;68.30
10121;DHT22;5100;45.176;5.714;2023-05-23T12:11:56;24.10;68.40
10121;DHT22;5100;45.176;5.714;2023-05-23T12:14:22;24.10;68.40
10121;DHT22;5100;45.176;5.714;2023-05-23T12:16:48;24.10;68.00
10121;DHT22;5100;45.176;5.714;2023-05-23T12:19:17;24.10;68.00
10121;DHT22;5100;45.176;5.714;2023-05-23T12:21:45;24.10;68.00
10121;DHT22;5100;45.176;5.714;2023-05-23T12:24:14;24.10;68.10
10121;DHT22;5100;45.176;5.714;2023-05-23T12:26:53;24.10;68.10
10121;DHT22;5100;45.176;5.714;2023-05-23T12:29:33;24.10;68.00
10121;DHT22;5100;45.176;5.714;2023-05-23T12:32:02;24.10;68.10
10121;DHT22;5100;45.176;5.714;2023-05-23T12:34:28;24.10;67.90
10121;DHT22;5100;45.176;5.714;2023-05-23T12:36:58;24.10;67.90
10121;DHT22;5100;45.176;5.714;2023-05-23T12:39:26;24.10;68.10
10121;DHT22;5100;45.176;5.714;2023-05-23T12:41:53;24.10;68.10
10121;DHT22;5100;45.176;5.714;2023-05-23T12:44:21;24.10;68.20
10121;DHT22;5100;45.176;5.714;2023-05-23T12:46:48;24.10;68.10
10121;DHT22;5100;45.176;5.714;2023-05-23T12:49:13;24.10;68.30
10121;DHT22;5100;45.176;5.714;2023-05-23T12:51:39;24.10;68.30
10121;DHT22;5100;45.176;5.714;2023-05-23T12:54:07;24.10;68.10
10121;DHT22;5100;45.176;5.714;2023-05-23T12:56:33;24.10;68.20
10121;DHT22;5100;45.176;5.714;2023-05-23T12:58:59;24.10;68.00
10121;DHT22;5100;45.176;5.714;2023-05-23T13:01:27;24.10;68.10
10121;DHT22;5100;45.176;5.714;2023-05-23T13:03:53;24.10;68.10
10121;DHT22;5100;45.176;5.714;2023-05-23T13:06:19;24.10;68.30
10121;DHT22;5100;45.176;5.714;2023-05-23T13:08:45;24.10;68.10
10121;DHT22;5100;45.176;5.714;2023-05-23T13:11:13;24.10;68.10
10121;DHT22;5100;45.176;5.714;2023-05-23T13:13:39;24.10;68.10
10121;DHT22;5100;45.176;5.714;2023-05-23T13:16:05;24.10;68.00
10121;DHT22;5100;45.176;5.714;2023-05-23T13:18:31;24.10;67.90
10121;DHT22;5100;45.176;5.714;2023-05-23T13:20:57;24.20;67.80
10121;DHT22;5100;45.176;5.714;2023-05-23T13:23:24;24.20;67.80
10121;DHT22;5100;45.176;5.714;2023-05-23T13:25:51;24.20;68.00
10121;DHT22;5100;45.176;5.714;2023-05-23T13:28:18;24.20;68.20
10121;DHT22;5100;45.176;5.714;2023-05-23T13:30:44;24.20;68.00
10121;DHT22;5100;45.176;5.714;2023-05-23T13:33:11;24.20;67.80
10121;DHT22;5100;45.176;5.714;2023-05-23T13:35:37;24.30;67.80
10121;DHT22;5100;45.176;5.714;2023-05-23T13:38:03;24.30;67.60
10121;DHT22;5100;45.176;5.714;2023-05-23T13:40:30;24.30;67.60
10121;DHT22;5100;45.176;5.714;2023-05-23T13:42:56;24.30;67.40
10121;DHT22;5100;45.176;5.714;2023-05-23T13:45:22;24.40;67.30
10121;DHT22;5100;45.176;5.714;2023-05-23T13:47:49;24.40;67.10
10121;DHT22;5100;45.176;5.714;2023-05-23T13:50:16;24.40;66.80
10121;DHT22;5100;45.176;5.714;2023-05-23T13:52:42;24.40;66.70
10121;DHT22;5100;45.176;5.714;2023-05-23T13:55:09;24.40;66.70
10121;DHT22;5100;45.176;5.714;2023-05-23T13:57:35;24.40;66.70
10121;DHT22;5100;45.176;5.714;2023-05-23T14:00:02;24.40;66.70
10121;DHT22;5100;45.176;5.714;2023-05-23T14:02:30;24.40;66.70
10121;DHT22;5100;45.176;5.714;2023-05-23T14:04:59;24.40;66.80
10121;DHT22;5100;45.176;5.714;2023-05-23T14:07:25;24.30;66.70
10121;DHT22;5100;45.176;5.714;2023-05-23T14:09:51;24.30;66.60
10121;DHT22;5100;45.176;5.714;2023-05-23T14:12:17;24.40;66.60
10121;DHT22;5100;45.176;5.714;2023-05-23T14:14:43;24.40;66.60
10121;DHT22;5100;45.176;5.714;2023-05-23T14:17:14;24.40;66.50
10121;DHT22;5100;45.176;5.714;2023-05-23T14:19:41;24.40;66.60
10121;DHT22;5100;45.176;5.714;2023-05-23T14:22:07;24.40;66.50
10121;DHT22;5100;45.176;5.714;2023-05-23T14:24:32;24.40;66.50
10121;DHT22;5100;45.176;5.714;2023-05-23T14:26:59;24.40;66.30
10121;DHT22;5100;45.176;5.714;2023-05-23T14:29:25;24.40;66.30
10121;DHT22;5100;45.176;5.714;2023-05-23T14:31:51;24.40;66.40
10121;DHT22;5100;45.176;5.714;2023-05-23T14:34:17;24.40;66.40
10121;DHT22;5100;45.176;5.714;2023-05-23T14:36:43;24.40;66.40
10121;DHT22;5100;45.176;5.714;2023-05-23T14:39:09;24.40;66.40
10121;DHT22;5100;45.176;5.714;2023-05-23T14:41:36;24.50;66.10
10121;DHT22;5100;45.176;5.714;2023-05-23T14:44:02;24.50;66.00
10121;DHT22;5100;45.176;5.714;2023-05-23T14:46:28;24.50;66.20
10121;DHT22;5100;45.176;5.714;2023-05-23T14:48:55;24.50;66.00
10121;DHT22;5100;45.176;5.714;2023-05-23T14:51:21;24.60;65.80
10121;DHT22;5100;45.176;5.714;2023-05-23T14:53:47;24.60;65.70
10121;DHT22;5100;45.176;5.714;2023-05-23T14:56:13;24.60;65.50
10121;DHT22;5100;45.176;5.714;2023-05-23T14:58:39;24.60;65.40
10121;DHT22;5100;45.176;5.714;2023-05-23T15:01:13;24.70;65.30
10121;DHT22;5100;45.176;5.714;2023-05-23T15:03:39;24.70;65.10
10121;DHT22;5100;45.176;5.714;2023-05-23T15:06:06;24.70;65.10
10121;DHT22;5100;45.176;5.714;2023-05-23T15:08:32;24.70;65.10
10121;DHT22;5100;45.176;5.714;2023-05-23T15:10:59;24.70;65.10
10121;DHT22;5100;45.176;5.714;2023-05-23T15:13:25;24.70;65.10
10121;DHT22;5100;45.176;5.714;2023-05-23T15:15:51;24.70;65.30
10121;DHT22;5100;45.176;5.714;2023-05-23T15:18:19;24.70;65.40
10121;DHT22;5100;45.176;5.714;2023-05-23T15:20:45;24.70;65.30
10121;DHT22;5100;45.176;5.714;2023-05-23T15:23:11;24.70;65.40
10121;DHT22;5100;45.176;5.714;2023-05-23T15:25:37;24.70;65.40
10121;DHT22;5100;45.176;5.714;2023-05-23T15:28:03;24.70;65.20
10121;DHT22;5100;45.176;5.714;2023-05-23T15:30:29;24.70;65.30
10121;DHT22;5100;45.176;5.714;2023-05-23T15:32:56;24.70;65.10
10121;DHT22;5100;45.176;5.714;2023-05-23T15:35:22;24.80;65.00
10121;DHT22;5100;45.176;5.714;2023-05-23T15:37:48;24.80;64.90
10121;DHT22;5100;45.176;5.714;2023-05-23T15:40:14;24.80;64.90
10121;DHT22;5100;45.176;5.714;2023-05-23T15:42:40;24.70;64.80
10121;DHT22;5100;45.176;5.714;2023-05-23T15:45:07;24.70;64.90
10121;DHT22;5100;45.176;5.714;2023-05-23T15:47:33;24.60;65.00
10121;DHT22;5100;45.176;5.714;2023-05-23T15:49:59;24.60;65.10
10121;DHT22;5100;45.176;5.714;2023-05-23T15:52:25;24.50;65.10
10121;DHT22;5100;45.176;5.714;2023-05-23T15:54:52;24.50;65.10
10121;DHT22;5100;45.176;5.714;2023-05-23T15:57:18;24.40;65.40
10121;DHT22;5100;45.176;5.714;2023-05-23T15:59:44;24.40;65.60
10121;DHT22;5100;45.176;5.714;2023-05-23T16:02:10;24.30;65.90
10121;DHT22;5100;45.176;5.714;2023-05-23T16:04:36;24.30;66.00
10121;DHT22;5100;45.176;5.714;2023-05-23T16:07:03;24.20;66.10